AirNav   Pilot Hours Calculator
 
 1572 users online  

24CL Boswell Airport
Corcoran, California, USA

GOING TO CORCORAN?


FAA INFORMATION EFFECTIVE 04 NOVEMBER 2021

Location

FAA Identifier: 24CL
Lat/Long: 36-05-19.2200N 119-32-29.8600W
36-05.320333N 119-32.497667W
36.0886722,-119.5416278
(estimated)
Elevation: 205.2 ft. / 62.5 m (surveyed)
Variation: 12E (2020)
From city: 2 miles SE of CORCORAN, CA
Time zone: UTC -7 (UTC -8 during Standard Time)
Zip code: 93212

Airport Operations

Airport use: Private use. Permission required prior to landing
Activation date: 04/1948
Control tower: no
ARTCC: OAKLAND CENTER
FSS: RANCHO MURIETA FLIGHT SERVICE STATION
NOTAMs facility: FDC (NOTAM-D service not available)
Attendance: UNATNDD
Wind indicator: yes
Segmented circle: no
Lights: ACTVT MALSR RWY 32, VASI RWYS 14 & 32, HIRL - 122.85. PCL NON-STANDARD ON 122.85; 5 CLICKS TO ACTUATE, 3 TO DIM, AND 7 TO TURN OFF.

Airport Communications

WX AWOS-3PT at TLR (11 nm E): 120.0 (559-686-2613)
WX ASOS at HJO (14 nm N): 134.75 (559-585-8076)
WX AWOS-3PT at VIS (16 nm NE): 119.925 (559-651-2418)

Nearby radio navigation aids

VOR radial/distance  VOR name  Freq  Var
VISr174/17.0VISALIA VOR/DME109.4016E
TTEr277/27.4TULE VOR/DME109.2016E
AVEr023/34.0AVENAL VOR/DME117.1016E

 
NDB name  Hdg/Dist  Freq  Var  ID
SALYER FARMS323/1.520516ECOR -.-. --- .-.

Airport Services

Airframe service: NONE
Powerplant service: NONE

Runway Information

Runway 14/32

Dimensions: 6815 x 75 ft. / 2077 x 23 m
Surface: asphalt
Runway edge lights: high intensity
RUNWAY 14  RUNWAY 32
Latitude: 36-05.839333N36-04.801167N
Longitude: 119-32.761667W119-32.233667W
Elevation: 205.2 ft.202.6 ft.
Traffic pattern: leftright
Displaced threshold: 794 ft.618 ft.
Markings: nonprecision, in good conditionnonprecision, in good condition
Visual slope indicator: 2-box VASI on left (4.00 degrees glide path)2-box VASI on left (3.00 degrees glide path)
Approach lights: MALSR: 1,400 foot medium intensity approach lighting system with runway alignment indicator lights
Touchdown point: yes, no lightsyes, no lights

Airport Ownership and Management from official FAA records

Ownership: Privately-owned
Owner: JG BOSWELL COMPANY
PO BOX 457
CORCORAN, CA 93212
Phone 559-992-2141
Manager: HAROLD GRAEBE
JG BOSWELL CO PO BOX 457
CORCORAN, CA 93212
Phone 559-992-2141

Airport Operational Statistics

Aircraft based on the field: 3
Multi engine airplanes: 1
Jet airplanes: 1
Helicopters: 1
    

Additional Remarks

FOR CD CTC OAKLAND ARTCC AT 510-745-3380.

Instrument Procedures

There are no published instrument procedures at 24CL.

Some nearby airports with instrument procedures:

KTLR - Mefford Field Airport (11 nm E)
KHJO - Hanford Municipal Airport (14 nm N)
KVIS - Visalia Municipal Airport (16 nm NE)
KPTV - Porterville Municipal Airport (23 nm E)
KNLC - Lemoore Naval Air Station (Reeves Field) (25 nm NW)
 
Loc | Ops | Rwys | IFR | FBO | Links
Com | Nav | Svcs | Stats | Notes
Area around 24CL (Boswell Airport)
 
Road maps at: MapQuest Bing Google
 
Aerial photo
WARNING: Photo may not be current or correct
Aerial photo of 24CL (Boswell Airport)
Do you have a better or more recent aerial photo of Boswell Airport that you would like to share? If so, please send us your photo.

 
Sectional chart

 
Airport distance calculator
Flying to Boswell Airport? Find the distance to fly.

From to 24CL

Sunrise and sunset
Times for 29-Nov-2021
 Local
(UTC-8)
 Zulu
(UTC)
Morning civil twilight06:2214:22
Sunrise06:5014:50
Sunset16:4300:43
Evening civil twilight17:1101:11

Current date and time
Zulu (UTC)  30-Nov-2021 00:53:44
Local (UTC-8)  29-Nov-2021 16:53:44
 
METAR
KHJO 
14nm N 
290753Z AUTO 00000KT 2 1/2SM BR CLR 04/03 A3022 RMK AO2 SLP235 T00440033 402170011
KVIS 
15nm NE 
292356Z AUTO 00000KT 6SM HZ CLR 20/07 A3011 RMK AO2 SLP204 T02000067 10206 20133 56012
KPTV 
23nm E 
292356Z AUTO 29004KT 6SM HZ CLR 21/07 A3011 RMK AO2 SLP197 T02060067 10222 20150 55010
KNLC 
24nm NW 
292356Z 02004KT 6SM HZ CLR 22/06 A3010 RMK AO2 SLP195 RH/34 T02170056 10222 20144 56011
KDLO 
25nm SE 
300035Z AUTO 00000KT 7SM CLR 18/02 A3010 RMK AO2 T01820016
TAF
KVIS 
15nm NE 
291720Z 2918/3018 00000KT P6SM SKC FM301200 00000KT 4SM BR SKC FM301600 VRB02KT 2SM BR SKC
NOTAMs
Click for the latest NOTAMs
NOTAMs are issued by the DoD/FAA and will open in a separate window not controlled by AirNav.

 

 
 

Would you like to see your business listed on this page?

 If your business provides an interesting product or service to pilots, flight crews, aircraft, or users of the Boswell Airport, you should consider listing it here.  To start the listing process, click on the button below
 
Add a business
 

Other Pages about Boswell Airport

Update a link
 
Copyright © AirNav, LLC. All rights reserved. Privacy Policy  Contact